createdAt,value
2022-09-19T00:02:02.744Z,100.00
2022-09-19T00:04:34.012Z,100.00
2022-09-19T00:07:04.880Z,100.00
2022-09-19T00:09:35.497Z,100.00
2022-09-19T00:12:04.679Z,100.00
2022-09-19T00:14:36.538Z,100.00
2022-09-19T00:17:08.399Z,100.00
2022-09-19T00:19:38.721Z,100.00
2022-09-19T00:22:10.321Z,100.00
2022-09-19T00:24:49.546Z,100.00
2022-09-19T00:27:21.613Z,100.00
2022-09-19T00:29:51.697Z,100.00
2022-09-19T00:32:22.200Z,100.00
2022-09-19T00:34:56.108Z,100.00
2022-09-19T00:37:27.450Z,100.00
2022-09-19T00:39:56.752Z,100.00
2022-09-19T00:42:27.937Z,100.00
2022-09-19T00:45:02.966Z,100.00
2022-09-19T00:47:45.829Z,100.00
2022-09-19T00:50:22.226Z,100.00
2022-09-19T00:52:55.779Z,100.00
2022-09-19T00:55:24.766Z,100.00
2022-09-19T00:58:12.205Z,100.00
2022-09-19T01:00:41.448Z,100.00
2022-09-19T01:03:10.940Z,100.00
2022-09-19T01:05:51.183Z,100.00
2022-09-19T01:08:54.048Z,100.00
2022-09-19T01:11:46.562Z,100.00
2022-09-19T01:14:28.053Z,100.00
2022-09-19T01:17:07.844Z,100.00
2022-09-19T01:19:56.406Z,100.00
2022-09-19T01:22:44.134Z,100.00
2022-09-19T01:25:25.621Z,100.00
2022-09-19T01:28:10.958Z,100.00
2022-09-19T01:31:14.717Z,100.00
2022-09-19T01:33:51.790Z,100.00
2022-09-19T01:36:23.779Z,100.00
2022-09-19T01:38:54.400Z,100.00
2022-09-19T01:41:27.745Z,100.00
2022-09-19T01:44:03.104Z,100.00
2022-09-19T01:46:45.593Z,100.00
2022-09-19T01:49:28.252Z,100.00
2022-09-19T01:52:07.426Z,100.00
2022-09-19T01:54:48.602Z,100.00
2022-09-19T01:57:27.651Z,100.00
2022-09-19T02:00:12.062Z,100.00
2022-09-19T02:02:58.621Z,100.00
2022-09-19T02:05:42.758Z,100.00
2022-09-19T02:08:17.225Z,100.00
2022-09-19T02:10:55.451Z,100.00
2022-09-19T02:13:30.197Z,100.00
2022-09-19T02:16:14.467Z,100.00
2022-09-19T02:18:54.943Z,100.00
2022-09-19T02:21:32.165Z,100.00
2022-09-19T02:24:07.168Z,100.00
2022-09-19T02:26:38.899Z,100.00
2022-09-19T02:29:11.123Z,100.00
2022-09-19T02:31:42.279Z,100.00
2022-09-19T02:34:12.118Z,100.00
2022-09-19T02:36:47.465Z,100.00
2022-09-19T02:39:24.257Z,100.00
2022-09-19T02:42:24.832Z,100.00
2022-09-19T02:45:08.839Z,100.00
2022-09-19T02:47:53.077Z,100.00
2022-09-19T02:50:27.619Z,100.00
2022-09-19T02:53:00.640Z,100.00
2022-09-19T02:55:34.487Z,100.00
2022-09-19T02:58:05.623Z,100.00
2022-09-19T03:00:39.410Z,100.00
2022-09-19T03:03:28.729Z,100.00
2022-09-19T03:06:02.648Z,100.00
2022-09-19T03:08:36.362Z,100.00
2022-09-19T03:11:14.642Z,100.00
2022-09-19T03:13:45.069Z,100.00
2022-09-19T03:16:19.702Z,100.00
2022-09-19T03:18:56.668Z,100.00
2022-09-19T03:21:28.177Z,100.00
2022-09-19T03:23:59.876Z,100.00
2022-09-19T03:26:33.150Z,100.00
2022-09-19T03:29:05.463Z,100.00
2022-09-19T03:31:51.625Z,100.00
2022-09-19T03:34:23.329Z,100.00
2022-09-19T03:36:53.738Z,100.00
2022-09-19T03:39:29.258Z,100.00
2022-09-19T03:41:59.105Z,100.00
2022-09-19T03:44:30.218Z,100.00
2022-09-19T03:46:59.996Z,100.00
2022-09-19T03:49:31.211Z,100.00
2022-09-19T03:52:00.846Z,100.00
2022-09-19T03:54:31.055Z,100.00
2022-09-19T03:57:01.586Z,100.00
2022-09-19T03:59:30.536Z,100.00
2022-09-19T04:01:59.559Z,100.00
2022-09-19T04:04:30.596Z,100.00
2022-09-19T04:07:02.232Z,100.00
2022-09-19T04:09:31.451Z,100.00
2022-09-19T04:12:06.374Z,100.00
2022-09-19T04:14:36.920Z,100.00
2022-09-19T04:17:21.831Z,100.00
2022-09-19T04:19:53.347Z,100.00
2022-09-19T04:22:33.875Z,100.00
2022-09-19T04:25:34.123Z,100.00
2022-09-19T04:28:18.112Z,100.00
2022-09-19T04:30:47.718Z,100.00
2022-09-19T04:33:19.213Z,100.00
2022-09-19T04:35:49.633Z,100.00
2022-09-19T04:38:20.247Z,100.00
2022-09-19T04:40:58.214Z,100.00
2022-09-19T04:43:30.254Z,100.00
2022-09-19T04:46:22.146Z,100.00
2022-09-19T04:48:53.519Z,100.00
2022-09-19T04:51:32.156Z,100.00
2022-09-19T04:54:03.208Z,100.00
2022-09-19T04:56:33.332Z,100.00
2022-09-19T04:59:04.295Z,100.00
2022-09-19T05:01:34.078Z,100.00
2022-09-19T05:04:05.285Z,100.00
2022-09-19T05:06:37.744Z,100.00
2022-09-19T05:09:12.325Z,100.00
2022-09-19T05:11:50.889Z,100.00
2022-09-19T05:14:22.963Z,100.00
2022-09-19T05:16:56.665Z,100.00
2022-09-19T05:19:26.016Z,100.00
2022-09-19T05:21:58.227Z,100.00
2022-09-19T05:24:27.243Z,100.00
2022-09-19T05:26:59.513Z,100.00
2022-09-19T05:29:30.212Z,100.00
2022-09-19T05:32:05.810Z,100.00
2022-09-19T05:34:44.915Z,100.00
2022-09-19T05:37:42.015Z,100.00
2022-09-19T05:40:30.115Z,100.00
2022-09-19T05:43:12.629Z,100.00
2022-09-19T05:45:43.279Z,100.00
2022-09-19T05:48:13.033Z,100.00
2022-09-19T05:50:45.167Z,100.00
2022-09-19T05:53:34.182Z,100.00
2022-09-19T05:56:14.563Z,100.00
2022-09-19T05:58:55.338Z,100.00
2022-09-19T06:01:26.659Z,100.00
2022-09-19T06:03:56.644Z,100.00
2022-09-19T06:06:28.339Z,100.00
2022-09-19T06:09:00.161Z,100.00
2022-09-19T06:11:37.715Z,100.00
2022-09-19T06:14:18.506Z,100.00
2022-09-19T06:16:52.290Z,100.00
2022-09-19T06:19:57.101Z,100.00
2022-09-19T06:22:30.495Z,100.00
2022-09-19T06:25:02.091Z,100.00
2022-09-19T06:27:32.684Z,100.00
2022-09-19T06:30:02.550Z,100.00
2022-09-19T06:32:40.328Z,100.00
2022-09-19T06:35:19.191Z,100.00
2022-09-19T06:37:48.566Z,100.00
2022-09-19T06:40:21.326Z,100.00
2022-09-19T06:43:20.570Z,100.00
2022-09-19T06:46:12.596Z,100.00
2022-09-19T06:48:44.322Z,100.00
2022-09-19T06:51:36.012Z,100.00
2022-09-19T06:54:06.380Z,100.00
2022-09-19T06:56:37.096Z,100.00
2022-09-19T06:59:09.884Z,100.00
2022-09-19T07:01:40.877Z,100.00
2022-09-19T07:04:10.057Z,100.00
2022-09-19T07:06:57.750Z,100.00
2022-09-19T07:09:26.832Z,100.00
2022-09-19T07:11:58.388Z,100.00
2022-09-19T07:14:30.926Z,100.00
2022-09-19T07:17:01.535Z,100.00
2022-09-19T07:19:30.721Z,100.00
2022-09-19T07:22:20.477Z,100.00
2022-09-19T07:25:17.323Z,96.10
2022-09-19T07:28:02.201Z,97.23
2022-09-19T07:30:34.673Z,95.44
2022-09-19T07:33:08.089Z,94.50
2022-09-19T07:35:42.505Z,96.33
2022-09-19T07:38:13.911Z,98.54
2022-09-19T07:41:03.668Z,99.38
2022-09-19T07:43:39.026Z,100.00
2022-09-19T07:46:18.549Z,98.89
2022-09-19T07:48:55.818Z,98.56
2022-09-19T07:51:40.672Z,97.77
2022-09-19T07:54:10.852Z,97.37
2022-09-19T07:56:41.965Z,96.45
2022-09-19T07:59:14.584Z,95.58
2022-09-19T08:01:55.729Z,92.73
2022-09-19T08:04:53.616Z,89.49
2022-09-19T08:07:24.313Z,87.87
2022-09-19T08:09:53.515Z,86.74
2022-09-19T08:12:26.947Z,86.67
2022-09-19T08:15:09.074Z,85.31
2022-09-19T08:17:38.284Z,85.00
2022-09-19T08:20:10.317Z,84.27
2022-09-19T08:22:44.072Z,82.41
2022-09-19T08:25:13.923Z,80.27
2022-09-19T08:27:45.716Z,82.67
2022-09-19T08:30:16.705Z,77.69
2022-09-19T08:32:56.778Z,78.50
2022-09-19T08:35:28.502Z,78.52
2022-09-19T08:37:59.071Z,78.97
2022-09-19T08:40:33.429Z,76.29
2022-09-19T08:43:10.353Z,75.20
2022-09-19T08:46:05.113Z,75.77
2022-09-19T08:48:40.077Z,74.57
2022-09-19T08:51:17.817Z,73.54
2022-09-19T08:53:53.183Z,71.25
2022-09-19T08:56:22.304Z,72.05
2022-09-19T08:58:59.274Z,70.99
2022-09-19T09:01:40.324Z,71.20
2022-09-19T09:04:37.352Z,68.98
2022-09-19T09:07:30.020Z,70.75
2022-09-19T09:10:35.564Z,70.57
2022-09-19T09:13:16.453Z,74.66
2022-09-19T09:15:59.911Z,72.93
2022-09-19T09:18:46.634Z,73.11
2022-09-19T09:21:26.639Z,74.09
2022-09-19T09:24:23.412Z,70.66
2022-09-19T09:27:17.719Z,69.14
2022-09-19T09:29:51.221Z,71.71
2022-09-19T09:32:31.826Z,70.19
2022-09-19T09:35:07.730Z,71.70
2022-09-19T09:37:46.914Z,71.02
2022-09-19T09:40:55.360Z,72.07
2022-09-19T09:43:27.671Z,68.44
2022-09-19T09:46:02.629Z,67.28
2022-09-19T09:48:40.221Z,66.75
2022-09-19T09:51:32.145Z,64.64
2022-09-19T09:54:31.806Z,66.59
2022-09-19T09:57:14.000Z,65.48
2022-09-19T10:00:07.277Z,67.64
2022-09-19T10:03:18.806Z,64.37
2022-09-19T10:05:54.448Z,62.13
2022-09-19T10:08:35.766Z,61.44
2022-09-19T10:14:19.234Z,59.46
2022-09-19T10:16:54.153Z,60.55
2022-09-19T10:19:33.091Z,58.52
2022-09-19T10:22:02.723Z,59.44
2022-09-19T10:24:53.104Z,60.43
2022-09-19T10:27:28.374Z,62.88
2022-09-19T10:30:01.936Z,64.75
2022-09-19T10:32:35.393Z,60.64
2022-09-19T10:35:28.364Z,60.42
2022-09-19T10:38:13.967Z,62.02
2022-09-19T10:40:57.090Z,62.33
2022-09-19T10:43:32.484Z,64.53
2022-09-19T10:46:08.080Z,59.60
2022-09-19T10:48:51.464Z,58.03
2022-09-19T10:51:22.333Z,59.09
2022-09-19T10:53:59.254Z,59.03
2022-09-19T10:56:35.226Z,58.21
2022-09-19T10:59:26.258Z,58.27
2022-09-19T11:02:23.966Z,52.90
2022-09-19T11:05:00.876Z,49.22
2022-09-19T11:07:34.967Z,54.61
2022-09-19T11:10:48.388Z,55.75
2022-09-19T11:13:33.388Z,54.96
2022-09-19T11:16:18.374Z,59.35
2022-09-19T11:19:08.567Z,59.74
2022-09-19T11:21:55.433Z,60.08
2022-09-19T11:24:41.752Z,60.21
2022-09-19T11:27:30.737Z,54.56
2022-09-19T11:30:12.388Z,51.88
2022-09-19T11:33:00.783Z,48.99
2022-09-19T11:35:57.334Z,47.02
2022-09-19T11:41:53.313Z,50.54
2022-09-19T11:44:44.349Z,48.15
2022-09-19T11:47:52.367Z,49.60
2022-09-19T11:50:34.101Z,52.52
2022-09-19T11:53:33.690Z,55.40
2022-09-19T11:56:24.613Z,54.39
2022-09-19T11:59:00.575Z,54.66
2022-09-19T12:01:43.403Z,54.12
2022-09-19T12:04:33.588Z,55.72
2022-09-19T12:07:29.481Z,58.59
2022-09-19T12:10:12.658Z,61.44
2022-09-19T12:12:44.367Z,63.00
2022-09-19T12:15:40.675Z,60.83
2022-09-19T12:18:15.651Z,63.64
2022-09-19T12:20:50.900Z,64.68
2022-09-19T12:23:43.655Z,65.47
2022-09-19T12:26:24.370Z,67.90
2022-09-19T12:29:01.263Z,76.33
2022-09-19T12:31:36.000Z,83.67
2022-09-19T12:34:15.667Z,86.82
2022-09-19T12:36:53.592Z,87.78
2022-09-19T12:39:31.788Z,87.81
2022-09-19T12:42:09.143Z,89.59
2022-09-19T12:44:45.954Z,91.24
2022-09-19T12:47:22.154Z,90.89
2022-09-19T12:50:24.252Z,91.28
2022-09-19T12:53:13.732Z,91.90
2022-09-19T12:55:57.430Z,92.17
2022-09-19T12:58:30.295Z,90.02
2022-09-19T13:01:13.353Z,91.80
2022-09-19T13:03:47.534Z,90.43
2022-09-19T13:06:21.262Z,87.14
2022-09-19T13:08:57.158Z,84.36
2022-09-19T13:11:32.025Z,85.74
2022-09-19T13:14:07.173Z,82.85
2022-09-19T13:17:00.621Z,86.36
2022-09-19T13:19:53.402Z,85.26
2022-09-19T13:22:40.800Z,85.10
2022-09-19T13:25:19.281Z,85.10
2022-09-19T13:28:09.056Z,86.49
2022-09-19T13:30:49.637Z,86.24
2022-09-19T13:33:36.788Z,86.18
2022-09-19T13:36:10.641Z,86.92
2022-09-19T13:38:42.754Z,83.24
2022-09-19T13:41:24.215Z,78.89
2022-09-19T13:44:07.427Z,77.00
2022-09-19T13:46:45.159Z,70.71
2022-09-19T13:49:29.920Z,68.07
2022-09-19T13:52:04.482Z,69.39
2022-09-19T13:54:45.252Z,65.96
2022-09-19T13:57:21.700Z,61.16
2022-09-19T13:59:56.985Z,64.67
2022-09-19T14:02:31.492Z,61.11
2022-09-19T14:05:07.149Z,58.40
2022-09-19T14:10:48.879Z,58.81
2022-09-19T14:13:39.423Z,51.94
2022-09-19T14:16:20.477Z,54.22
2022-09-19T14:18:53.650Z,53.68
2022-09-19T14:21:56.732Z,54.66
2022-09-19T14:24:49.678Z,56.59
2022-09-19T14:27:48.393Z,58.81
2022-09-19T14:30:43.367Z,55.98
2022-09-19T14:33:55.561Z,53.30
2022-09-19T14:36:44.699Z,53.36
2022-09-19T14:39:38.490Z,54.00
2022-09-19T14:42:29.754Z,55.25
2022-09-19T14:45:18.364Z,54.61
2022-09-19T14:47:53.575Z,55.15
2022-09-19T14:50:26.133Z,60.63
2022-09-19T14:53:01.086Z,71.68
2022-09-19T14:55:38.705Z,70.84
2022-09-19T14:58:25.386Z,72.66
2022-09-19T15:01:00.011Z,71.47
2022-09-19T15:03:31.774Z,71.62
2022-09-19T15:06:02.117Z,71.73
2022-09-19T15:08:33.441Z,77.46
2022-09-19T15:11:05.243Z,75.20
2022-09-19T15:13:35.722Z,72.12
2022-09-19T15:16:10.722Z,66.87
2022-09-19T15:18:44.889Z,64.48
2022-09-19T15:21:20.083Z,62.00
2022-09-19T15:23:51.214Z,62.54
2022-09-19T15:26:22.567Z,59.97
2022-09-19T15:29:00.325Z,61.22
2022-09-19T15:31:34.333Z,59.56
2022-09-19T15:34:08.587Z,61.83
2022-09-19T15:36:38.827Z,60.99
2022-09-19T15:39:12.935Z,59.14
2022-09-19T15:41:43.968Z,62.34
2022-09-19T15:44:28.098Z,60.96
2022-09-19T15:47:07.164Z,60.29
2022-09-19T15:49:41.424Z,61.48
2022-09-19T15:52:16.107Z,57.82
2022-09-19T15:54:50.994Z,59.74
2022-09-19T15:57:33.469Z,62.96
2022-09-19T16:00:07.621Z,66.08
2022-09-19T16:02:51.165Z,66.62
2022-09-19T16:05:24.935Z,67.60
2022-09-19T16:08:14.514Z,67.67
2022-09-19T16:10:55.553Z,71.67
2022-09-19T16:13:37.393Z,81.94
2022-09-19T16:16:28.129Z,87.03
2022-09-19T16:18:58.453Z,92.76
2022-09-19T16:21:35.603Z,96.03
2022-09-19T16:24:09.413Z,97.87
2022-09-19T16:26:38.912Z,100.00
2022-09-19T16:29:08.079Z,99.74
2022-09-19T16:31:39.357Z,100.00
2022-09-19T16:34:11.290Z,100.00
2022-09-19T16:36:47.047Z,100.00
2022-09-19T16:39:22.364Z,100.00
2022-09-19T16:42:20.480Z,100.00
2022-09-19T16:44:52.856Z,100.00
2022-09-19T16:47:23.855Z,100.00
2022-09-19T16:49:54.382Z,100.00
2022-09-19T16:52:27.107Z,100.00
2022-09-19T16:54:59.960Z,100.00
2022-09-19T16:57:30.881Z,100.00
2022-09-19T17:00:00.276Z,100.00
2022-09-19T17:02:31.884Z,100.00
2022-09-19T17:05:03.388Z,100.00
2022-09-19T17:07:33.791Z,100.00
2022-09-19T17:10:02.832Z,100.00
2022-09-19T17:12:32.051Z,100.00
2022-09-19T17:15:01.329Z,100.00
2022-09-19T17:17:30.415Z,100.00
2022-09-19T17:19:59.454Z,100.00
2022-09-19T17:22:32.959Z,100.00
2022-09-19T17:25:03.401Z,100.00
2022-09-19T17:27:32.507Z,100.00
2022-09-19T17:30:01.465Z,100.00
2022-09-19T17:32:30.426Z,100.00
2022-09-19T17:35:01.350Z,100.00
2022-09-19T17:37:31.009Z,100.00
2022-09-19T17:40:00.245Z,100.00
2022-09-19T17:42:30.958Z,100.00
2022-09-19T17:45:00.214Z,100.00
2022-09-19T17:47:43.945Z,100.00
2022-09-19T17:50:13.949Z,100.00
2022-09-19T17:52:45.340Z,100.00
2022-09-19T17:55:15.050Z,100.00
2022-09-19T17:57:50.112Z,100.00
2022-09-19T18:00:19.925Z,100.00
2022-09-19T18:03:06.967Z,100.00
2022-09-19T18:05:36.657Z,100.00
2022-09-19T18:08:07.719Z,100.00
2022-09-19T18:10:36.692Z,100.00
2022-09-19T18:13:09.294Z,100.00
2022-09-19T18:15:39.212Z,100.00
2022-09-19T18:18:08.537Z,100.00
2022-09-19T18:20:37.513Z,100.00
2022-09-19T18:23:06.815Z,100.00
2022-09-19T18:25:37.907Z,100.00
2022-09-19T18:28:12.431Z,100.00
2022-09-19T18:30:41.457Z,100.00
2022-09-19T18:33:10.427Z,100.00
2022-09-19T18:35:39.588Z,100.00
2022-09-19T18:38:08.589Z,100.00
2022-09-19T18:40:38.037Z,100.00
2022-09-19T18:43:09.109Z,100.00
2022-09-19T18:45:38.471Z,100.00
2022-09-19T18:48:07.556Z,100.00
2022-09-19T18:50:36.559Z,100.00
2022-09-19T18:53:05.484Z,100.00
2022-09-19T18:55:39.054Z,100.00
2022-09-19T18:58:09.336Z,100.00
2022-09-19T19:00:38.351Z,100.00
2022-09-19T19:03:07.338Z,100.00
2022-09-19T19:05:36.544Z,100.00
2022-09-19T19:08:06.014Z,100.00
2022-09-19T19:10:37.995Z,100.00
2022-09-19T19:13:09.312Z,100.00
2022-09-19T19:15:40.497Z,100.00
2022-09-19T19:18:09.683Z,100.00
2022-09-19T19:20:38.610Z,100.00
2022-09-19T19:23:07.546Z,100.00
2022-09-19T19:25:36.498Z,100.00
2022-09-19T19:28:05.378Z,100.00
2022-09-19T19:30:36.866Z,100.00
2022-09-19T19:33:07.899Z,100.00
2022-09-19T19:35:36.938Z,100.00
2022-09-19T19:38:05.934Z,100.00
2022-09-19T19:40:35.297Z,100.00
2022-09-19T19:43:04.373Z,100.00
2022-09-19T19:45:34.508Z,100.00
2022-09-19T19:48:11.250Z,100.00
2022-09-19T19:50:41.858Z,100.00
2022-09-19T19:53:20.556Z,100.00
2022-09-19T19:56:01.690Z,100.00
2022-09-19T19:59:05.406Z,100.00
2022-09-19T20:01:47.527Z,100.00
2022-09-19T20:04:28.716Z,100.00
2022-09-19T20:07:00.736Z,100.00
2022-09-19T20:09:30.688Z,100.00
2022-09-19T20:12:00.432Z,100.00
2022-09-19T20:14:29.547Z,100.00
2022-09-19T20:17:00.536Z,100.00
2022-09-19T20:19:31.224Z,100.00
2022-09-19T20:22:02.145Z,100.00
2022-09-19T20:24:32.531Z,100.00
2022-09-19T20:27:01.816Z,100.00
2022-09-19T20:29:31.200Z,100.00
2022-09-19T20:32:01.706Z,100.00
2022-09-19T20:34:32.583Z,100.00
2022-09-19T20:37:01.509Z,100.00
2022-09-19T20:39:30.625Z,100.00
2022-09-19T20:41:59.715Z,100.00
2022-09-19T20:44:28.632Z,100.00
2022-09-19T20:46:57.584Z,100.00
2022-09-19T20:49:28.348Z,100.00
2022-09-19T20:51:59.612Z,100.00
2022-09-19T20:54:29.291Z,100.00
2022-09-19T20:56:58.341Z,100.00
2022-09-19T20:59:27.436Z,100.00
2022-09-19T21:01:56.334Z,100.00
2022-09-19T21:04:25.363Z,100.00
2022-09-19T21:06:54.332Z,100.00
2022-09-19T21:09:25.158Z,100.00
2022-09-19T21:11:54.328Z,100.00
2022-09-19T21:14:23.387Z,100.00
2022-09-19T21:16:52.372Z,100.00
2022-09-19T21:19:21.411Z,100.00
2022-09-19T21:21:50.300Z,100.00
2022-09-19T21:24:19.500Z,100.00
2022-09-19T21:26:49.829Z,100.00
2022-09-19T21:29:18.821Z,100.00
2022-09-19T21:31:47.884Z,100.00
2022-09-19T21:34:18.095Z,100.00
2022-09-19T21:36:47.271Z,100.00
2022-09-19T21:39:16.401Z,100.00
2022-09-19T21:41:45.552Z,100.00
2022-09-19T21:44:15.838Z,100.00
2022-09-19T21:46:44.907Z,100.00
2022-09-19T21:49:13.867Z,100.00
2022-09-19T21:51:42.918Z,100.00
2022-09-19T21:54:12.070Z,100.00
2022-09-19T21:56:41.040Z,100.00
2022-09-19T21:59:10.012Z,100.00
2022-09-19T22:01:40.741Z,100.00
2022-09-19T22:04:12.114Z,100.00
2022-09-19T22:06:41.532Z,100.00
2022-09-19T22:09:10.695Z,100.00
2022-09-19T22:11:39.697Z,100.00
2022-09-19T22:14:08.650Z,100.00
2022-09-19T22:16:39.401Z,100.00
2022-09-19T22:19:08.881Z,100.00
2022-09-19T22:21:38.099Z,100.00
2022-09-19T22:24:07.364Z,100.00
2022-09-19T22:26:36.352Z,100.00
2022-09-19T22:29:05.385Z,100.00
2022-09-19T22:31:34.425Z,100.00
2022-09-19T22:34:04.912Z,100.00
2022-09-19T22:36:34.396Z,100.00
2022-09-19T22:39:03.898Z,100.00
2022-09-19T22:41:33.844Z,100.00
2022-09-19T22:44:03.067Z,100.00
2022-09-19T22:46:32.456Z,100.00
2022-09-19T22:49:03.549Z,100.00
2022-09-19T22:51:34.239Z,100.00
2022-09-19T22:54:03.580Z,100.00
2022-09-19T22:56:32.714Z,100.00
2022-09-19T22:59:04.577Z,100.00
2022-09-19T23:01:34.125Z,100.00
2022-09-19T23:04:06.137Z,100.00
2022-09-19T23:06:39.065Z,100.00
2022-09-19T23:09:13.047Z,100.00
2022-09-19T23:11:43.389Z,100.00
2022-09-19T23:14:15.643Z,100.00
2022-09-19T23:16:45.505Z,100.00
2022-09-19T23:19:16.700Z,100.00
2022-09-19T23:21:50.023Z,100.00
2022-09-19T23:24:21.145Z,100.00
2022-09-19T23:26:51.182Z,100.00
2022-09-19T23:29:21.320Z,100.00
2022-09-19T23:31:51.772Z,100.00
2022-09-19T23:34:22.163Z,100.00
2022-09-19T23:36:54.595Z,100.00
2022-09-19T23:39:24.353Z,100.00
2022-09-19T23:41:53.350Z,100.00
2022-09-19T23:44:22.396Z,100.00
2022-09-19T23:46:51.392Z,100.00
2022-09-19T23:49:20.410Z,100.00
2022-09-19T23:51:50.842Z,100.00
2022-09-19T23:54:21.412Z,100.00
2022-09-19T23:56:50.469Z,100.00
2022-09-19T23:59:19.922Z,100.00
